sensor_id;sensor_type;location;lat;lon;timestamp;P1;durP1;ratioP1;P2;durP2;ratioP2
8179;SDS011;4131;48.810;11.892;2022-11-25T00:01:23;0.87;;;0.87;;
8179;SDS011;4131;48.810;11.892;2022-11-25T00:03:53;2.47;;;2.30;;
8179;SDS011;4131;48.810;11.892;2022-11-25T00:06:23;1.53;;;1.43;;
8179;SDS011;4131;48.810;11.892;2022-11-25T00:08:52;2.70;;;0.83;;
8179;SDS011;4131;48.810;11.892;2022-11-25T00:11:24;0.90;;;0.90;;
8179;SDS011;4131;48.810;11.892;2022-11-25T00:13:53;3.00;;;1.93;;
8179;SDS011;4131;48.810;11.892;2022-11-25T00:16:22;7.63;;;2.27;;
8179;SDS011;4131;48.810;11.892;2022-11-25T00:18:52;1.10;;;1.00;;
8179;SDS011;4131;48.810;11.892;2022-11-25T00:21:22;1.13;;;1.10;;
8179;SDS011;4131;48.810;11.892;2022-11-25T00:23:53;0.33;;;0.33;;
8179;SDS011;4131;48.810;11.892;2022-11-25T00:26:24;0.33;;;0.33;;
8179;SDS011;4131;48.810;11.892;2022-11-25T00:28:53;0.50;;;0.50;;
8179;SDS011;4131;48.810;11.892;2022-11-25T00:31:23;0.83;;;0.50;;
8179;SDS011;4131;48.810;11.892;2022-11-25T00:33:53;0.50;;;0.50;;
8179;SDS011;4131;48.810;11.892;2022-11-25T00:36:22;0.80;;;0.80;;
8179;SDS011;4131;48.810;11.892;2022-11-25T00:38:52;3.17;;;1.57;;
8179;SDS011;4131;48.810;11.892;2022-11-25T00:41:24;5.00;;;2.13;;
8179;SDS011;4131;48.810;11.892;2022-11-25T00:44:11;5.43;;;4.17;;
8179;SDS011;4131;48.810;11.892;2022-11-25T00:46:58;2.77;;;2.07;;
8179;SDS011;4131;48.810;11.892;2022-11-25T00:49:27;2.13;;;1.33;;
8179;SDS011;4131;48.810;11.892;2022-11-25T00:51:55;0.33;;;0.33;;
8179;SDS011;4131;48.810;11.892;2022-11-25T00:54:24;0.50;;;0.50;;
8179;SDS011;4131;48.810;11.892;2022-11-25T00:56:54;1.07;;;1.07;;
8179;SDS011;4131;48.810;11.892;2022-11-25T00:59:22;0.47;;;0.47;;
8179;SDS011;4131;48.810;11.892;2022-11-25T01:01:51;0.50;;;0.50;;
8179;SDS011;4131;48.810;11.892;2022-11-25T01:04:19;5.43;;;2.43;;
8179;SDS011;4131;48.810;11.892;2022-11-25T01:06:48;6.63;;;1.60;;
8179;SDS011;4131;48.810;11.892;2022-11-25T01:09:16;0.50;;;0.50;;
8179;SDS011;4131;48.810;11.892;2022-11-25T01:11:45;0.30;;;0.30;;
8179;SDS011;4131;48.810;11.892;2022-11-25T01:14:15;0.63;;;0.63;;
8179;SDS011;4131;48.810;11.892;2022-11-25T01:16:43;0.20;;;0.20;;
8179;SDS011;4131;48.810;11.892;2022-11-25T01:19:12;0.47;;;0.47;;
8179;SDS011;4131;48.810;11.892;2022-11-25T01:21:41;0.00;;;0.00;;
8179;SDS011;4131;48.810;11.892;2022-11-25T01:24:10;0.20;;;0.20;;
8179;SDS011;4131;48.810;11.892;2022-11-25T01:26:41;0.27;;;0.27;;
8179;SDS011;4131;48.810;11.892;2022-11-25T01:29:11;0.97;;;0.97;;
8179;SDS011;4131;48.810;11.892;2022-11-25T01:31:43;1.20;;;0.90;;
8179;SDS011;4131;48.810;11.892;2022-11-25T01:34:13;0.10;;;0.10;;
8179;SDS011;4131;48.810;11.892;2022-11-25T01:36:43;0.87;;;0.80;;
8179;SDS011;4131;48.810;11.892;2022-11-25T01:39:12;0.57;;;0.57;;
8179;SDS011;4131;48.810;11.892;2022-11-25T01:41:44;0.70;;;0.70;;
8179;SDS011;4131;48.810;11.892;2022-11-25T01:44:14;0.50;;;0.50;;
8179;SDS011;4131;48.810;11.892;2022-11-25T01:46:50;0.10;;;0.10;;
8179;SDS011;4131;48.810;11.892;2022-11-25T01:49:23;0.43;;;0.40;;
8179;SDS011;4131;48.810;11.892;2022-11-25T01:51:58;0.30;;;0.27;;
8179;SDS011;4131;48.810;11.892;2022-11-25T01:54:30;0.30;;;0.30;;
8179;SDS011;4131;48.810;11.892;2022-11-25T01:57:03;0.17;;;0.17;;
8179;SDS011;4131;48.810;11.892;2022-11-25T01:59:36;0.00;;;0.00;;
8179;SDS011;4131;48.810;11.892;2022-11-25T02:02:08;0.53;;;0.53;;
8179;SDS011;4131;48.810;11.892;2022-11-25T02:04:51;0.30;;;0.30;;
8179;SDS011;4131;48.810;11.892;2022-11-25T02:07:24;0.30;;;0.30;;
8179;SDS011;4131;48.810;11.892;2022-11-25T02:09:56;0.10;;;0.10;;
8179;SDS011;4131;48.810;11.892;2022-11-25T02:12:26;0.17;;;0.17;;
8179;SDS011;4131;48.810;11.892;2022-11-25T02:14:57;0.40;;;0.40;;
8179;SDS011;4131;48.810;11.892;2022-11-25T02:17:27;1.37;;;0.40;;
8179;SDS011;4131;48.810;11.892;2022-11-25T02:19:58;0.00;;;0.00;;
8179;SDS011;4131;48.810;11.892;2022-11-25T02:22:32;2.90;;;0.60;;
8179;SDS011;4131;48.810;11.892;2022-11-25T02:25:15;0.23;;;0.23;;
8179;SDS011;4131;48.810;11.892;2022-11-25T02:27:46;0.00;;;0.00;;
8179;SDS011;4131;48.810;11.892;2022-11-25T02:30:17;0.20;;;0.20;;
8179;SDS011;4131;48.810;11.892;2022-11-25T02:32:46;0.10;;;0.10;;
8179;SDS011;4131;48.810;11.892;2022-11-25T02:35:25;0.00;;;0.00;;
8179;SDS011;4131;48.810;11.892;2022-11-25T02:38:05;0.10;;;0.10;;
8179;SDS011;4131;48.810;11.892;2022-11-25T02:40:38;0.30;;;0.30;;
8179;SDS011;4131;48.810;11.892;2022-11-25T02:43:12;0.60;;;0.60;;
8179;SDS011;4131;48.810;11.892;2022-11-25T02:45:44;0.00;;;0.00;;
8179;SDS011;4131;48.810;11.892;2022-11-25T02:48:19;0.00;;;0.00;;
8179;SDS011;4131;48.810;11.892;2022-11-25T02:51:05;0.00;;;0.00;;
8179;SDS011;4131;48.810;11.892;2022-11-25T02:53:35;2.47;;;2.27;;
8179;SDS011;4131;48.810;11.892;2022-11-25T02:56:05;1.47;;;1.00;;
8179;SDS011;4131;48.810;11.892;2022-11-25T02:58:34;0.17;;;0.17;;
8179;SDS011;4131;48.810;11.892;2022-11-25T03:01:02;0.27;;;0.17;;
8179;SDS011;4131;48.810;11.892;2022-11-25T03:03:31;0.00;;;0.00;;
8179;SDS011;4131;48.810;11.892;2022-11-25T03:05:59;1.80;;;0.50;;
8179;SDS011;4131;48.810;11.892;2022-11-25T03:08:28;0.10;;;0.10;;
8179;SDS011;4131;48.810;11.892;2022-11-25T03:10:56;0.50;;;0.50;;
8179;SDS011;4131;48.810;11.892;2022-11-25T03:13:26;0.10;;;0.10;;
8179;SDS011;4131;48.810;11.892;2022-11-25T03:15:55;0.40;;;0.40;;
8179;SDS011;4131;48.810;11.892;2022-11-25T03:18:24;6.73;;;0.33;;
8179;SDS011;4131;48.810;11.892;2022-11-25T03:20:53;0.53;;;0.53;;
8179;SDS011;4131;48.810;11.892;2022-11-25T03:23:21;0.60;;;0.60;;
8179;SDS011;4131;48.810;11.892;2022-11-25T03:25:50;0.50;;;0.20;;
8179;SDS011;4131;48.810;11.892;2022-11-25T03:28:18;0.37;;;0.37;;
8179;SDS011;4131;48.810;11.892;2022-11-25T03:30:48;0.23;;;0.23;;
8179;SDS011;4131;48.810;11.892;2022-11-25T03:33:17;0.03;;;0.03;;
8179;SDS011;4131;48.810;11.892;2022-11-25T03:35:46;0.00;;;0.00;;
8179;SDS011;4131;48.810;11.892;2022-11-25T03:38:15;0.43;;;0.43;;
8179;SDS011;4131;48.810;11.892;2022-11-25T03:40:43;0.00;;;0.00;;
8179;SDS011;4131;48.810;11.892;2022-11-25T03:43:12;0.00;;;0.00;;
8179;SDS011;4131;48.810;11.892;2022-11-25T03:45:41;0.43;;;0.40;;
8179;SDS011;4131;48.810;11.892;2022-11-25T03:48:11;0.00;;;0.00;;
8179;SDS011;4131;48.810;11.892;2022-11-25T03:50:39;0.10;;;0.10;;
8179;SDS011;4131;48.810;11.892;2022-11-25T03:53:09;0.10;;;0.10;;
8179;SDS011;4131;48.810;11.892;2022-11-25T03:55:37;0.20;;;0.20;;
8179;SDS011;4131;48.810;11.892;2022-11-25T03:58:06;0.30;;;0.30;;
8179;SDS011;4131;48.810;11.892;2022-11-25T04:00:34;0.17;;;0.17;;
8179;SDS011;4131;48.810;11.892;2022-11-25T04:03:03;0.00;;;0.00;;
8179;SDS011;4131;48.810;11.892;2022-11-25T04:05:32;0.00;;;0.00;;
8179;SDS011;4131;48.810;11.892;2022-11-25T04:08:01;0.03;;;0.03;;
8179;SDS011;4131;48.810;11.892;2022-11-25T04:10:29;0.10;;;0.10;;
8179;SDS011;4131;48.810;11.892;2022-11-25T04:13:16;0.00;;;0.00;;
8179;SDS011;4131;48.810;11.892;2022-11-25T04:16:03;0.13;;;0.13;;
8179;SDS011;4131;48.810;11.892;2022-11-25T04:18:51;0.00;;;0.00;;
8179;SDS011;4131;48.810;11.892;2022-11-25T04:21:41;0.13;;;0.13;;
8179;SDS011;4131;48.810;11.892;2022-11-25T04:24:37;0.00;;;0.00;;
8179;SDS011;4131;48.810;11.892;2022-11-25T04:27:05;0.10;;;0.10;;
8179;SDS011;4131;48.810;11.892;2022-11-25T04:29:34;0.10;;;0.10;;
8179;SDS011;4131;48.810;11.892;2022-11-25T04:32:02;0.30;;;0.20;;
8179;SDS011;4131;48.810;11.892;2022-11-25T04:34:31;0.17;;;0.17;;
8179;SDS011;4131;48.810;11.892;2022-11-25T04:37:01;0.77;;;0.77;;
8179;SDS011;4131;48.810;11.892;2022-11-25T04:39:29;0.30;;;0.30;;
8179;SDS011;4131;48.810;11.892;2022-11-25T04:41:58;0.47;;;0.47;;
8179;SDS011;4131;48.810;11.892;2022-11-25T04:44:40;0.13;;;0.10;;
8179;SDS011;4131;48.810;11.892;2022-11-25T04:47:28;1.20;;;0.50;;
8179;SDS011;4131;48.810;11.892;2022-11-25T04:49:57;0.00;;;0.00;;
8179;SDS011;4131;48.810;11.892;2022-11-25T04:52:27;0.57;;;0.57;;
8179;SDS011;4131;48.810;11.892;2022-11-25T04:54:56;0.10;;;0.10;;
8179;SDS011;4131;48.810;11.892;2022-11-25T04:57:24;0.00;;;0.00;;
8179;SDS011;4131;48.810;11.892;2022-11-25T04:59:53;0.10;;;0.10;;
8179;SDS011;4131;48.810;11.892;2022-11-25T05:02:21;0.20;;;0.20;;
8179;SDS011;4131;48.810;11.892;2022-11-25T05:04:51;0.00;;;0.00;;
8179;SDS011;4131;48.810;11.892;2022-11-25T05:07:23;0.00;;;0.00;;
8179;SDS011;4131;48.810;11.892;2022-11-25T05:09:54;0.17;;;0.17;;
8179;SDS011;4131;48.810;11.892;2022-11-25T05:12:24;0.20;;;0.20;;
8179;SDS011;4131;48.810;11.892;2022-11-25T05:14:54;0.00;;;0.00;;
8179;SDS011;4131;48.810;11.892;2022-11-25T05:17:23;0.50;;;0.30;;
8179;SDS011;4131;48.810;11.892;2022-11-25T05:19:53;0.53;;;0.53;;
8179;SDS011;4131;48.810;11.892;2022-11-25T05:22:24;0.20;;;0.20;;
8179;SDS011;4131;48.810;11.892;2022-11-25T05:24:56;1.50;;;0.50;;
8179;SDS011;4131;48.810;11.892;2022-11-25T05:27:26;0.10;;;0.10;;
8179;SDS011;4131;48.810;11.892;2022-11-25T05:29:55;0.93;;;0.93;;
8179;SDS011;4131;48.810;11.892;2022-11-25T05:32:24;1.43;;;1.07;;
8179;SDS011;4131;48.810;11.892;2022-11-25T05:34:53;1.27;;;1.17;;
8179;SDS011;4131;48.810;11.892;2022-11-25T05:37:21;0.43;;;0.43;;
8179;SDS011;4131;48.810;11.892;2022-11-25T05:39:50;6.50;;;4.53;;
8179;SDS011;4131;48.810;11.892;2022-11-25T05:42:21;3.17;;;2.23;;
8179;SDS011;4131;48.810;11.892;2022-11-25T05:44:49;0.93;;;0.93;;
8179;SDS011;4131;48.810;11.892;2022-11-25T05:47:17;1.60;;;1.03;;
8179;SDS011;4131;48.810;11.892;2022-11-25T05:49:46;0.30;;;0.30;;
8179;SDS011;4131;48.810;11.892;2022-11-25T05:52:14;1.77;;;1.37;;
8179;SDS011;4131;48.810;11.892;2022-11-25T05:54:43;0.80;;;0.80;;
8179;SDS011;4131;48.810;11.892;2022-11-25T05:57:11;0.47;;;0.47;;
8179;SDS011;4131;48.810;11.892;2022-11-25T05:59:41;0.10;;;0.10;;
8179;SDS011;4131;48.810;11.892;2022-11-25T06:02:10;0.47;;;0.47;;
8179;SDS011;4131;48.810;11.892;2022-11-25T06:04:38;0.97;;;0.97;;
8179;SDS011;4131;48.810;11.892;2022-11-25T06:07:06;0.57;;;0.57;;
8179;SDS011;4131;48.810;11.892;2022-11-25T06:09:35;0.83;;;0.40;;
8179;SDS011;4131;48.810;11.892;2022-11-25T06:12:03;1.53;;;1.43;;
8179;SDS011;4131;48.810;11.892;2022-11-25T06:14:32;0.80;;;0.73;;
8179;SDS011;4131;48.810;11.892;2022-11-25T06:17:02;0.47;;;0.43;;
8179;SDS011;4131;48.810;11.892;2022-11-25T06:19:30;0.33;;;0.33;;
8179;SDS011;4131;48.810;11.892;2022-11-25T06:21:59;0.07;;;0.07;;
8179;SDS011;4131;48.810;11.892;2022-11-25T06:24:27;0.40;;;0.40;;
8179;SDS011;4131;48.810;11.892;2022-11-25T06:26:56;0.40;;;0.40;;
8179;SDS011;4131;48.810;11.892;2022-11-25T06:29:25;0.37;;;0.37;;
8179;SDS011;4131;48.810;11.892;2022-11-25T06:31:54;1.13;;;1.13;;
8179;SDS011;4131;48.810;11.892;2022-11-25T06:34:24;1.27;;;1.20;;
8179;SDS011;4131;48.810;11.892;2022-11-25T06:36:52;1.83;;;1.73;;
8179;SDS011;4131;48.810;11.892;2022-11-25T06:39:21;0.20;;;0.20;;
8179;SDS011;4131;48.810;11.892;2022-11-25T06:41:53;0.30;;;0.30;;
8179;SDS011;4131;48.810;11.892;2022-11-25T06:44:22;0.00;;;0.00;;
8179;SDS011;4131;48.810;11.892;2022-11-25T06:46:50;4.50;;;1.07;;
8179;SDS011;4131;48.810;11.892;2022-11-25T06:49:19;0.83;;;0.60;;
8179;SDS011;4131;48.810;11.892;2022-11-25T06:51:49;0.10;;;0.10;;
8179;SDS011;4131;48.810;11.892;2022-11-25T06:54:17;2.47;;;1.33;;
8179;SDS011;4131;48.810;11.892;2022-11-25T06:56:46;0.20;;;0.20;;
8179;SDS011;4131;48.810;11.892;2022-11-25T06:59:16;0.73;;;0.73;;
8179;SDS011;4131;48.810;11.892;2022-11-25T07:01:45;0.83;;;0.77;;
8179;SDS011;4131;48.810;11.892;2022-11-25T07:04:14;0.77;;;0.77;;
8179;SDS011;4131;48.810;11.892;2022-11-25T07:06:42;0.80;;;0.80;;
8179;SDS011;4131;48.810;11.892;2022-11-25T07:09:12;0.33;;;0.33;;
8179;SDS011;4131;48.810;11.892;2022-11-25T07:11:41;0.67;;;0.67;;
8179;SDS011;4131;48.810;11.892;2022-11-25T07:14:10;1.67;;;1.43;;
8179;SDS011;4131;48.810;11.892;2022-11-25T07:16:40;0.90;;;0.90;;
8179;SDS011;4131;48.810;11.892;2022-11-25T07:19:10;0.70;;;0.70;;
8179;SDS011;4131;48.810;11.892;2022-11-25T07:21:41;0.57;;;0.57;;
8179;SDS011;4131;48.810;11.892;2022-11-25T07:24:13;0.43;;;0.43;;
8179;SDS011;4131;48.810;11.892;2022-11-25T07:26:42;1.10;;;1.10;;
8179;SDS011;4131;48.810;11.892;2022-11-25T07:29:12;0.60;;;0.60;;
8179;SDS011;4131;48.810;11.892;2022-11-25T07:32:01;0.73;;;0.73;;
8179;SDS011;4131;48.810;11.892;2022-11-25T07:34:36;1.70;;;1.60;;
8179;SDS011;4131;48.810;11.892;2022-11-25T07:37:04;1.87;;;0.97;;
8179;SDS011;4131;48.810;11.892;2022-11-25T07:39:34;0.00;;;0.00;;
8179;SDS011;4131;48.810;11.892;2022-11-25T07:42:03;0.57;;;0.57;;
8179;SDS011;4131;48.810;11.892;2022-11-25T07:44:32;1.40;;;0.67;;
8179;SDS011;4131;48.810;11.892;2022-11-25T07:47:01;0.30;;;0.30;;
8179;SDS011;4131;48.810;11.892;2022-11-25T07:49:35;0.43;;;0.27;;
8179;SDS011;4131;48.810;11.892;2022-11-25T07:52:06;0.50;;;0.50;;
8179;SDS011;4131;48.810;11.892;2022-11-25T07:54:36;0.50;;;0.50;;
8179;SDS011;4131;48.810;11.892;2022-11-25T07:57:04;0.73;;;0.73;;
8179;SDS011;4131;48.810;11.892;2022-11-25T07:59:33;1.00;;;0.93;;
8179;SDS011;4131;48.810;11.892;2022-11-25T08:02:09;1.80;;;1.70;;
8179;SDS011;4131;48.810;11.892;2022-11-25T08:04:40;3.10;;;1.50;;
8179;SDS011;4131;48.810;11.892;2022-11-25T08:07:09;0.07;;;0.07;;
8179;SDS011;4131;48.810;11.892;2022-11-25T08:09:39;0.60;;;0.60;;
8179;SDS011;4131;48.810;11.892;2022-11-25T08:12:08;0.70;;;0.70;;
8179;SDS011;4131;48.810;11.892;2022-11-25T08:14:37;1.13;;;1.13;;
8179;SDS011;4131;48.810;11.892;2022-11-25T08:17:06;0.20;;;0.20;;
8179;SDS011;4131;48.810;11.892;2022-11-25T08:19:34;0.10;;;0.10;;
8179;SDS011;4131;48.810;11.892;2022-11-25T08:22:03;0.27;;;0.27;;
8179;SDS011;4131;48.810;11.892;2022-11-25T08:24:31;1.00;;;0.97;;
8179;SDS011;4131;48.810;11.892;2022-11-25T08:27:01;0.57;;;0.57;;
8179;SDS011;4131;48.810;11.892;2022-11-25T08:29:30;0.23;;;0.23;;
8179;SDS011;4131;48.810;11.892;2022-11-25T08:31:58;0.67;;;0.67;;
8179;SDS011;4131;48.810;11.892;2022-11-25T08:34:26;1.43;;;1.33;;
8179;SDS011;4131;48.810;11.892;2022-11-25T08:36:55;0.50;;;0.50;;
8179;SDS011;4131;48.810;11.892;2022-11-25T08:39:23;1.27;;;0.77;;
8179;SDS011;4131;48.810;11.892;2022-11-25T08:42:12;1.57;;;1.47;;
8179;SDS011;4131;48.810;11.892;2022-11-25T08:44:40;1.10;;;1.03;;
8179;SDS011;4131;48.810;11.892;2022-11-25T08:47:09;0.67;;;0.30;;
8179;SDS011;4131;48.810;11.892;2022-11-25T08:49:37;3.70;;;1.60;;
8179;SDS011;4131;48.810;11.892;2022-11-25T08:52:07;0.50;;;0.40;;
8179;SDS011;4131;48.810;11.892;2022-11-25T08:54:36;0.20;;;0.20;;
8179;SDS011;4131;48.810;11.892;2022-11-25T08:57:04;5.57;;;1.53;;
8179;SDS011;4131;48.810;11.892;2022-11-25T08:59:34;4.47;;;0.87;;
8179;SDS011;4131;48.810;11.892;2022-11-25T09:02:03;0.37;;;0.37;;
8179;SDS011;4131;48.810;11.892;2022-11-25T09:04:32;1.63;;;0.77;;
8179;SDS011;4131;48.810;11.892;2022-11-25T09:07:02;1.77;;;0.80;;
8179;SDS011;4131;48.810;11.892;2022-11-25T09:09:31;1.03;;;1.03;;
8179;SDS011;4131;48.810;11.892;2022-11-25T09:12:00;3.23;;;2.73;;
8179;SDS011;4131;48.810;11.892;2022-11-25T09:14:28;0.90;;;0.77;;
8179;SDS011;4131;48.810;11.892;2022-11-25T09:16:58;0.33;;;0.33;;
8179;SDS011;4131;48.810;11.892;2022-11-25T09:19:27;1.70;;;1.47;;
8179;SDS011;4131;48.810;11.892;2022-11-25T09:21:55;1.23;;;1.23;;
8179;SDS011;4131;48.810;11.892;2022-11-25T09:24:24;0.30;;;0.30;;
8179;SDS011;4131;48.810;11.892;2022-11-25T09:26:52;1.57;;;1.30;;
8179;SDS011;4131;48.810;11.892;2022-11-25T09:29:20;0.63;;;0.63;;
8179;SDS011;4131;48.810;11.892;2022-11-25T09:31:48;1.87;;;1.77;;
8179;SDS011;4131;48.810;11.892;2022-11-25T09:34:21;1.50;;;1.20;;
8179;SDS011;4131;48.810;11.892;2022-11-25T09:36:50;3.70;;;2.53;;
8179;SDS011;4131;48.810;11.892;2022-11-25T09:39:18;7.10;;;1.93;;
8179;SDS011;4131;48.810;11.892;2022-11-25T09:41:51;2.70;;;2.50;;
8179;SDS011;4131;48.810;11.892;2022-11-25T09:44:51;3.07;;;1.80;;
8179;SDS011;4131;48.810;11.892;2022-11-25T09:47:49;0.97;;;0.97;;
8179;SDS011;4131;48.810;11.892;2022-11-25T09:50:28;1.37;;;1.20;;
8179;SDS011;4131;48.810;11.892;2022-11-25T09:53:07;0.85;;;0.85;;
8179;SDS011;4131;48.810;11.892;2022-11-25T09:55:43;0.40;;;0.40;;
8179;SDS011;4131;48.810;11.892;2022-11-25T09:58:15;1.85;;;0.75;;
8179;SDS011;4131;48.810;11.892;2022-11-25T10:00:50;3.40;;;2.03;;
8179;SDS011;4131;48.810;11.892;2022-11-25T10:03:23;1.65;;;0.75;;
8179;SDS011;4131;48.810;11.892;2022-11-25T10:06:03;5.78;;;3.97;;
8179;SDS011;4131;48.810;11.892;2022-11-25T10:08:34;18.13;;;4.70;;
8179;SDS011;4131;48.810;11.892;2022-11-25T10:11:10;12.10;;;7.95;;
8179;SDS011;4131;48.810;11.892;2022-11-25T10:13:45;19.17;;;8.70;;
8179;SDS011;4131;48.810;11.892;2022-11-25T10:16:23;22.13;;;10.30;;
8179;SDS011;4131;48.810;11.892;2022-11-25T10:18:59;6.97;;;3.33;;
8179;SDS011;4131;48.810;11.892;2022-11-25T10:21:33;10.60;;;5.05;;
8179;SDS011;4131;48.810;11.892;2022-11-25T10:24:02;5.93;;;3.85;;
8179;SDS011;4131;48.810;11.892;2022-11-25T10:26:31;7.55;;;3.92;;
8179;SDS011;4131;48.810;11.892;2022-11-25T10:29:10;3.20;;;2.90;;
8179;SDS011;4131;48.810;11.892;2022-11-25T10:31:48;1.98;;;1.75;;
8179;SDS011;4131;48.810;11.892;2022-11-25T10:34:22;3.45;;;2.90;;
8179;SDS011;4131;48.810;11.892;2022-11-25T10:36:58;2.97;;;1.90;;
8179;SDS011;4131;48.810;11.892;2022-11-25T10:39:28;2.08;;;1.67;;
8179;SDS011;4131;48.810;11.892;2022-11-25T10:42:01;3.15;;;2.28;;
8179;SDS011;4131;48.810;11.892;2022-11-25T10:44:33;6.50;;;2.40;;
8179;SDS011;4131;48.810;11.892;2022-11-25T10:47:07;1.95;;;1.55;;
8179;SDS011;4131;48.810;11.892;2022-11-25T10:49:49;2.60;;;2.13;;
8179;SDS011;4131;48.810;11.892;2022-11-25T10:52:29;2.03;;;1.58;;
8179;SDS011;4131;48.810;11.892;2022-11-25T10:55:07;2.50;;;1.83;;
8179;SDS011;4131;48.810;11.892;2022-11-25T10:57:37;2.03;;;1.25;;
8179;SDS011;4131;48.810;11.892;2022-11-25T11:00:07;1.70;;;1.33;;
8179;SDS011;4131;48.810;11.892;2022-11-25T11:02:51;3.33;;;1.45;;
8179;SDS011;4131;48.810;11.892;2022-11-25T11:05:22;1.25;;;1.23;;
8179;SDS011;4131;48.810;11.892;2022-11-25T11:08:14;0.52;;;0.52;;
8179;SDS011;4131;48.810;11.892;2022-11-25T11:10:44;1.50;;;0.90;;
8179;SDS011;4131;48.810;11.892;2022-11-25T11:13:20;2.25;;;1.15;;
8179;SDS011;4131;48.810;11.892;2022-11-25T11:15:51;1.23;;;1.23;;
8179;SDS011;4131;48.810;11.892;2022-11-25T11:18:22;1.40;;;0.65;;
8179;SDS011;4131;48.810;11.892;2022-11-25T11:20:53;1.92;;;1.83;;
8179;SDS011;4131;48.810;11.892;2022-11-25T11:23:24;0.85;;;0.82;;
8179;SDS011;4131;48.810;11.892;2022-11-25T11:25:54;0.88;;;0.77;;
8179;SDS011;4131;48.810;11.892;2022-11-25T11:28:28;2.63;;;0.73;;
8179;SDS011;4131;48.810;11.892;2022-11-25T11:31:05;2.97;;;1.42;;
8179;SDS011;4131;48.810;11.892;2022-11-25T11:33:42;2.70;;;1.98;;
8179;SDS011;4131;48.810;11.892;2022-11-25T11:36:24;1.40;;;1.27;;
8179;SDS011;4131;48.810;11.892;2022-11-25T11:39:15;2.35;;;1.65;;
8179;SDS011;4131;48.810;11.892;2022-11-25T11:41:53;2.75;;;1.10;;
8179;SDS011;4131;48.810;11.892;2022-11-25T11:44:28;1.92;;;1.60;;
8179;SDS011;4131;48.810;11.892;2022-11-25T11:47:09;0.73;;;0.73;;
8179;SDS011;4131;48.810;11.892;2022-11-25T11:49:56;2.13;;;1.73;;
8179;SDS011;4131;48.810;11.892;2022-11-25T11:52:37;2.88;;;1.52;;
8179;SDS011;4131;48.810;11.892;2022-11-25T11:55:24;6.25;;;0.68;;
8179;SDS011;4131;48.810;11.892;2022-11-25T11:58:37;2.65;;;1.90;;
8179;SDS011;4131;48.810;11.892;2022-11-25T12:01:27;1.13;;;0.85;;
8179;SDS011;4131;48.810;11.892;2022-11-25T12:04:07;1.13;;;1.02;;
8179;SDS011;4131;48.810;11.892;2022-11-25T12:06:45;2.58;;;2.30;;
8179;SDS011;4131;48.810;11.892;2022-11-25T12:09:23;2.40;;;0.73;;
8179;SDS011;4131;48.810;11.892;2022-11-25T12:11:58;0.22;;;0.22;;
8179;SDS011;4131;48.810;11.892;2022-11-25T12:14:32;3.17;;;2.00;;
8179;SDS011;4131;48.810;11.892;2022-11-25T12:17:06;0.95;;;0.82;;
8179;SDS011;4131;48.810;11.892;2022-11-25T12:19:43;1.83;;;0.80;;
8179;SDS011;4131;48.810;11.892;2022-11-25T12:22:17;1.90;;;1.33;;
8179;SDS011;4131;48.810;11.892;2022-11-25T12:24:50;1.27;;;0.88;;
8179;SDS011;4131;48.810;11.892;2022-11-25T12:27:25;3.40;;;1.40;;
8179;SDS011;4131;48.810;11.892;2022-11-25T12:30:00;2.10;;;1.40;;
8179;SDS011;4131;48.810;11.892;2022-11-25T12:32:40;1.98;;;1.55;;
8179;SDS011;4131;48.810;11.892;2022-11-25T12:35:19;0.98;;;0.88;;
8179;SDS011;4131;48.810;11.892;2022-11-25T12:37:56;1.63;;;1.27;;
8179;SDS011;4131;48.810;11.892;2022-11-25T12:40:31;0.77;;;0.77;;
8179;SDS011;4131;48.810;11.892;2022-11-25T12:45:59;2.00;;;0.80;;
8179;SDS011;4131;48.810;11.892;2022-11-25T12:48:36;1.83;;;0.90;;
8179;SDS011;4131;48.810;11.892;2022-11-25T12:51:09;3.03;;;1.23;;
8179;SDS011;4131;48.810;11.892;2022-11-25T12:53:48;2.05;;;0.82;;
8179;SDS011;4131;48.810;11.892;2022-11-25T12:56:33;0.70;;;0.70;;
8179;SDS011;4131;48.810;11.892;2022-11-25T12:59:22;7.70;;;3.83;;
8179;SDS011;4131;48.810;11.892;2022-11-25T13:02:15;2.05;;;1.60;;
8179;SDS011;4131;48.810;11.892;2022-11-25T13:05:12;1.42;;;1.38;;
8179;SDS011;4131;48.810;11.892;2022-11-25T13:08:09;1.40;;;1.05;;
8179;SDS011;4131;48.810;11.892;2022-11-25T13:10:57;1.30;;;1.20;;
8179;SDS011;4131;48.810;11.892;2022-11-25T13:13:36;2.20;;;1.48;;
8179;SDS011;4131;48.810;11.892;2022-11-25T13:16:14;2.30;;;0.77;;
8179;SDS011;4131;48.810;11.892;2022-11-25T13:18:46;1.35;;;0.90;;
8179;SDS011;4131;48.810;11.892;2022-11-25T13:21:15;1.30;;;1.20;;
8179;SDS011;4131;48.810;11.892;2022-11-25T13:23:47;1.83;;;1.73;;
8179;SDS011;4131;48.810;11.892;2022-11-25T13:32:30;1.95;;;1.45;;
8179;SDS011;4131;48.810;11.892;2022-11-25T13:37:57;0.85;;;0.52;;
8179;SDS011;4131;48.810;11.892;2022-11-25T13:40:33;1.38;;;1.27;;
8179;SDS011;4131;48.810;11.892;2022-11-25T13:43:04;0.77;;;0.77;;
8179;SDS011;4131;48.810;11.892;2022-11-25T13:45:47;1.15;;;1.05;;
8179;SDS011;4131;48.810;11.892;2022-11-25T13:48:18;1.00;;;0.95;;
8179;SDS011;4131;48.810;11.892;2022-11-25T13:50:49;1.30;;;0.80;;
8179;SDS011;4131;48.810;11.892;2022-11-25T13:53:36;1.17;;;0.85;;
8179;SDS011;4131;48.810;11.892;2022-11-25T13:56:12;2.00;;;1.35;;
8179;SDS011;4131;48.810;11.892;2022-11-25T14:01:51;1.00;;;0.85;;
8179;SDS011;4131;48.810;11.892;2022-11-25T14:04:23;1.60;;;1.38;;
8179;SDS011;4131;48.810;11.892;2022-11-25T14:07:10;1.33;;;0.73;;
8179;SDS011;4131;48.810;11.892;2022-11-25T14:12:58;0.50;;;0.35;;
8179;SDS011;4131;48.810;11.892;2022-11-25T14:15:43;2.20;;;1.10;;
8179;SDS011;4131;48.810;11.892;2022-11-25T14:18:32;1.15;;;1.10;;
8179;SDS011;4131;48.810;11.892;2022-11-25T14:21:39;1.95;;;1.58;;
8179;SDS011;4131;48.810;11.892;2022-11-25T14:24:17;2.05;;;1.25;;
8179;SDS011;4131;48.810;11.892;2022-11-25T14:26:55;2.65;;;1.67;;
8179;SDS011;4131;48.810;11.892;2022-11-25T14:29:26;1.00;;;0.90;;
8179;SDS011;4131;48.810;11.892;2022-11-25T14:32:00;0.63;;;0.52;;
8179;SDS011;4131;48.810;11.892;2022-11-25T14:34:35;0.32;;;0.32;;
8179;SDS011;4131;48.810;11.892;2022-11-25T14:37:08;3.03;;;1.58;;
8179;SDS011;4131;48.810;11.892;2022-11-25T14:39:43;1.23;;;1.10;;
8179;SDS011;4131;48.810;11.892;2022-11-25T14:42:16;0.98;;;0.98;;
8179;SDS011;4131;48.810;11.892;2022-11-25T14:44:49;1.38;;;1.20;;
8179;SDS011;4131;48.810;11.892;2022-11-25T14:47:22;1.52;;;1.42;;
8179;SDS011;4131;48.810;11.892;2022-11-25T14:49:52;1.58;;;1.00;;
8179;SDS011;4131;48.810;11.892;2022-11-25T14:52:43;1.55;;;1.45;;
8179;SDS011;4131;48.810;11.892;2022-11-25T14:55:13;0.40;;;0.40;;
8179;SDS011;4131;48.810;11.892;2022-11-25T14:57:53;0.50;;;0.47;;
8179;SDS011;4131;48.810;11.892;2022-11-25T15:00:22;1.20;;;0.65;;
8179;SDS011;4131;48.810;11.892;2022-11-25T15:02:51;0.93;;;0.68;;
8179;SDS011;4131;48.810;11.892;2022-11-25T15:05:22;1.60;;;1.00;;
8179;SDS011;4131;48.810;11.892;2022-11-25T15:07:56;0.93;;;0.93;;
8179;SDS011;4131;48.810;11.892;2022-11-25T15:10:33;0.60;;;0.60;;
8179;SDS011;4131;48.810;11.892;2022-11-25T15:13:08;0.28;;;0.28;;
8179;SDS011;4131;48.810;11.892;2022-11-25T15:15:43;0.82;;;0.73;;
8179;SDS011;4131;48.810;11.892;2022-11-25T15:18:14;1.27;;;1.00;;
8179;SDS011;4131;48.810;11.892;2022-11-25T15:20:46;6.03;;;0.45;;
8179;SDS011;4131;48.810;11.892;2022-11-25T15:23:19;0.65;;;0.60;;
8179;SDS011;4131;48.810;11.892;2022-11-25T15:25:52;0.63;;;0.63;;
8179;SDS011;4131;48.810;11.892;2022-11-25T15:28:23;2.60;;;1.83;;
8179;SDS011;4131;48.810;11.892;2022-11-25T15:30:55;0.55;;;0.50;;
8179;SDS011;4131;48.810;11.892;2022-11-25T15:33:24;0.55;;;0.45;;
8179;SDS011;4131;48.810;11.892;2022-11-25T15:35:54;1.52;;;0.13;;
8179;SDS011;4131;48.810;11.892;2022-11-25T15:38:38;1.08;;;1.08;;
8179;SDS011;4131;48.810;11.892;2022-11-25T15:41:13;2.33;;;0.82;;
8179;SDS011;4131;48.810;11.892;2022-11-25T15:43:46;0.50;;;0.50;;
8179;SDS011;4131;48.810;11.892;2022-11-25T15:46:16;2.05;;;0.52;;
8179;SDS011;4131;48.810;11.892;2022-11-25T15:48:45;1.08;;;0.52;;
8179;SDS011;4131;48.810;11.892;2022-11-25T15:51:20;0.82;;;0.82;;
8179;SDS011;4131;48.810;11.892;2022-11-25T15:53:59;1.40;;;1.30;;